CheckWX is a tool to help pilots better visualize weather data.  It is not intended as a substitute for an official pre-flight weather briefing.

10:09:19 UTC

DAUI TAF
In Salah Airport
In Salah, Algeria
TAF DAUI 260500Z 2606/2706 06012KT 8000 NSC BECMG 2611/2614 16012KT BECMG 2616/2619 06010KT

Jun-26@
06:00 UTC

Jun-26 @ 06:00 UTC

Jun-26@
11:00 UTC

Jun-26 @ 11:00 UTC

TAF DAUI 260500Z 2606/2706 06012KT 8000 NSC
Wind
  • 060° at 12 KTS
Cloud Levels
  • No significant clouds

Jun-26@
11:00 UTC

Jun-26 @ 11:00 UTC

Jun-26@
16:00 UTC

Jun-26 @ 16:00 UTC

BECMG 2611/2614 16012KT

Becoming

Becoming Conditions expected by Wed, Jun 26, 2019 @ 14:00 UTC

Wind
  • 160° at 12 KTS
Cloud Levels
  • No significant clouds

Jun-26@
16:00 UTC

Jun-26 @ 16:00 UTC

Jun-27@
06:00 UTC

Jun-27 @ 06:00 UTC

BECMG 2616/2619 06010KT

Becoming

Becoming Conditions expected by Wed, Jun 26, 2019 @ 19:00 UTC

Wind
  • 060° at 10 KTS
Cloud Levels
  • No significant clouds